Time;durP1;ratioP1;P1;durP2;ratioP2;P2;SDS_P1;SDS_P2;PMS_P1;PMS_P2;Temp;Humidity;BMP_temperature;BMP_pressure;BME280_temperature;BME280_humidity;BME280_pressure;Samples;Min_cycle;Max_cycle;Signal;HPM_P1;HPM_P2
2023/12/22 00:00:40;;;;;;;21.20;4.27;;;6.30;99.90;;;;;;5031692;28;20372;-66
2023/12/22 00:03:06;;;;;;;22.40;4.13;;;6.30;99.90;;;;;;5030726;28;20492;-66
2023/12/22 00:05:32;;;;;;;23.57;5.23;;;6.40;99.90;;;;;;5032346;28;20041;-66
2023/12/22 00:07:57;;;;;;;22.73;4.63;;;6.40;99.90;;;;;;5031881;28;20050;-66
2023/12/22 00:10:23;;;;;;;26.50;3.53;;;6.40;99.90;;;;;;5031064;28;20551;-66
2023/12/22 00:12:48;;;;;;;26.70;4.77;;;6.50;99.90;;;;;;5032367;28;20113;-66
2023/12/22 00:15:14;;;;;;;24.67;4.47;;;6.50;99.90;;;;;;5032148;28;20095;-66
2023/12/22 00:17:39;;;;;;;24.70;4.70;;;6.40;99.90;;;;;;5031673;28;20182;-66
2023/12/22 00:20:05;;;;;;;27.87;6.00;;;6.40;99.90;;;;;;5032582;28;20041;-66
2023/12/22 00:22:31;;;;;;;25.15;5.93;;;6.30;99.90;;;;;;5031066;28;20041;-66
2023/12/22 00:24:57;;;;;;;18.77;3.90;;;6.30;99.90;;;;;;5030962;28;20489;-66
2023/12/22 00:27:22;;;;;;;28.33;5.17;;;6.30;99.90;;;;;;5030409;28;20056;-66
2023/12/22 00:29:48;;;;;;;27.40;5.40;;;6.30;99.90;;;;;;5030233;28;20512;-66
2023/12/22 00:32:13;;;;;;;18.90;3.77;;;6.20;99.90;;;;;;5031034;28;20039;-66
2023/12/22 00:34:39;;;;;;;25.80;5.33;;;6.20;99.90;;;;;;5030870;28;20037;-66
2023/12/22 00:37:05;;;;;;;28.47;4.53;;;6.20;99.90;;;;;;5030919;28;20459;-66
2023/12/22 00:39:31;;;;;;;33.30;4.97;;;6.20;99.90;;;;;;5030764;28;20041;-66
2023/12/22 00:41:57;;;;;;;20.83;4.88;;;6.10;99.90;;;;;;5030752;28;20052;-66
2023/12/22 00:44:23;;;;;;;28.25;5.07;;;6.10;99.90;;;;;;5026545;28;20042;-66
2023/12/22 00:46:48;;;;;;;35.30;5.55;;;6.10;99.90;;;;;;5029397;28;20052;-66
2023/12/22 00:49:14;;;;;;;20.97;4.10;;;6.10;99.90;;;;;;5030912;28;20037;-66
2023/12/22 00:51:40;;;;;;;33.50;6.70;;;6.10;99.90;;;;;;5030624;28;20065;-66
2023/12/22 00:54:05;;;;;;;26.97;5.80;;;6.10;99.90;;;;;;5028875;28;20285;-66
2023/12/22 00:56:31;;;;;;;28.93;4.63;;;6.20;99.90;;;;;;5030744;28;20403;-66
2023/12/22 00:58:57;;;;;;;23.77;3.90;;;6.20;99.90;;;;;;5030633;28;20167;-66
2023/12/22 01:01:22;;;;;;;29.67;3.77;;;6.20;99.90;;;;;;5029491;28;20050;-66
2023/12/22 01:03:48;;;;;;;23.37;3.37;;;6.20;99.90;;;;;;5029745;28;20294;-66
2023/12/22 01:06:14;;;;;;;16.40;2.90;;;6.10;99.90;;;;;;5031145;28;20041;-66
2023/12/22 01:08:40;;;;;;;19.10;3.40;;;6.10;99.90;;;;;;5030540;28;20124;-66
2023/12/22 01:11:06;;;;;;;21.53;3.90;;;6.10;99.90;;;;;;5030691;28;20176;-66
2023/12/22 01:13:31;;;;;;;30.30;4.70;;;6.00;99.90;;;;;;5029263;28;20408;-66
2023/12/22 01:15:57;;;;;;;25.73;5.22;;;6.00;99.90;;;;;;5029151;28;20552;-66
2023/12/22 01:18:25;;;;;;;26.90;4.27;;;5.90;99.90;;;;;;5042443;28;20056;-66
2023/12/22 01:20:50;;;;;;;27.40;5.18;;;5.90;99.90;;;;;;5028480;28;20041;-66
2023/12/22 01:23:16;;;;;;;34.33;5.00;;;6.00;99.90;;;;;;5029792;28;20037;-66
2023/12/22 01:25:42;;;;;;;23.53;4.53;;;6.00;99.90;;;;;;5029815;28;20052;-66
2023/12/22 01:28:07;;;;;;;33.42;4.82;;;6.00;99.90;;;;;;5031308;28;20489;-66
2023/12/22 01:30:33;;;;;;;24.50;5.03;;;6.00;99.90;;;;;;5029616;28;20083;-66
2023/12/22 01:32:58;;;;;;;18.77;2.87;;;6.10;99.90;;;;;;5029627;28;20489;-66
2023/12/22 01:35:24;;;;;;;29.93;4.13;;;6.10;99.90;;;;;;5029479;28;20040;-66
2023/12/22 01:37:51;;;;;;;35.17;4.50;;;6.10;99.90;;;;;;5036169;28;20562;-66
2023/12/22 01:40:16;;;;;;;28.83;5.22;;;6.20;99.90;;;;;;5034568;28;20053;-66
2023/12/22 01:42:42;;;;;;;24.53;4.13;;;6.20;99.90;;;;;;5029592;28;20038;-66
2023/12/22 01:45:08;;;;;;;26.20;3.70;;;6.20;99.90;;;;;;5028959;28;20794;-66
2023/12/22 01:47:35;;;;;;;32.08;3.83;;;6.20;99.90;;;;;;5029169;28;20042;-66
2023/12/22 01:50:01;;;;;;;20.90;3.80;;;6.20;99.90;;;;;;5029040;28;20456;-66
2023/12/22 01:52:27;;;;;;;24.15;3.38;;;6.20;99.90;;;;;;5030599;28;20064;-66
2023/12/22 01:54:54;;;;;;;26.90;4.22;;;6.20;99.90;;;;;;5028962;28;20454;-66
2023/12/22 01:57:21;;;;;;;24.25;4.68;;;6.20;99.90;;;;;;5010885;28;20511;-66
2023/12/22 01:59:48;;;;;;;25.83;3.55;;;6.20;99.90;;;;;;5027890;28;20038;-66
2023/12/22 02:02:14;;;;;;;24.75;4.50;;;6.10;99.90;;;;;;5027640;28;20053;-66
2023/12/22 02:04:40;;;;;;;26.67;4.50;;;6.10;99.90;;;;;;5029803;28;20041;-66
2023/12/22 02:07:08;;;;;;;;;;;6.10;99.90;;;;;;5033096;28;20044;-66
2023/12/22 02:09:33;;;;;;;23.55;3.85;;;6.10;99.90;;;;;;5029594;28;19921;-66
2023/12/22 02:11:59;;;;;;;12.97;2.27;;;6.10;99.90;;;;;;5028951;28;20183;-66
2023/12/22 02:14:25;;;;;;;18.70;3.97;;;6.10;99.90;;;;;;5028648;28;20331;-66
2023/12/22 02:17:21;;;;;;;23.10;4.53;;;6.10;99.90;;;;;;5029050;28;20033;-66
2023/12/22 02:19:48;;;;;;;26.50;3.45;;;6.10;99.90;;;;;;5023078;28;20092;-66
2023/12/22 02:22:13;;;;;;;25.30;4.38;;;6.00;99.90;;;;;;5030184;28;20479;-66
2023/12/22 02:24:40;;;;;;;30.63;5.67;;;6.00;99.90;;;;;;5028449;28;20341;-66
2023/12/22 02:27:17;;;;;;;25.05;3.10;;;6.00;99.90;;;;;;5029400;28;20347;-66
2023/12/22 02:29:54;;;;;;;19.77;3.63;;;6.00;99.90;;;;;;5028726;28;20452;-65
2023/12/22 02:32:34;;;;;;;27.13;4.20;;;6.00;99.90;;;;;;5028886;28;20041;-66
2023/12/22 02:35:08;;;;;;;28.58;5.30;;;6.00;99.90;;;;;;5023954;28;20057;-66
2023/12/22 02:37:35;;;;;;;34.25;5.25;;;6.00;99.90;;;;;;5028631;28;20098;-66
2023/12/22 02:40:02;;;;;;;19.60;3.03;;;6.00;99.90;;;;;;5030491;28;20052;-67
2023/12/22 02:42:30;;;;;;;21.48;3.83;;;6.00;99.90;;;;;;5044280;28;20037;-65
2023/12/22 02:44:59;;;;;;;17.75;3.15;;;6.00;99.90;;;;;;5030031;28;20057;-66
2023/12/22 02:47:27;;;;;;;18.95;3.25;;;6.00;99.90;;;;;;5028769;28;20041;-66
2023/12/22 02:49:53;;;;;;;21.85;3.30;;;6.10;99.90;;;;;;5028744;28;20049;-66
2023/12/22 02:52:19;;;;;;;19.48;3.03;;;6.10;99.90;;;;;;5029349;28;20087;-65
2023/12/22 02:54:46;;;;;;;13.07;2.20;;;6.20;99.90;;;;;;5026809;28;20042;-65
2023/12/22 02:57:12;;;;;;;16.98;1.58;;;6.10;99.90;;;;;;5032580;28;20056;-66
2023/12/22 02:59:38;;;;;;;9.13;1.40;;;6.10;99.90;;;;;;5035070;28;20415;-65
2023/12/22 03:02:04;;;;;;;10.18;1.45;;;6.00;99.90;;;;;;5030044;28;20203;-66
2023/12/22 03:04:30;;;;;;;16.73;2.17;;;6.00;99.90;;;;;;5033618;28;20030;-66
2023/12/22 03:06:55;;;;;;;21.93;2.83;;;5.90;99.90;;;;;;5032329;28;20397;-66
2023/12/22 03:09:21;;;;;;;17.03;2.23;;;5.90;99.90;;;;;;5032657;28;20073;-66
2023/12/22 03:11:48;;;;;;;16.63;3.20;;;6.00;99.90;;;;;;5033142;28;20033;-66
2023/12/22 03:14:13;;;;;;;10.40;1.92;;;6.00;99.90;;;;;;5032417;28;20055;-66
2023/12/22 03:16:40;;;;;;;13.07;1.87;;;6.00;99.90;;;;;;5031373;28;20033;-66
2023/12/22 03:19:07;;;;;;;14.27;1.73;;;6.10;99.90;;;;;;5031079;28;20045;-66
2023/12/22 03:21:32;;;;;;;13.25;1.92;;;6.10;99.90;;;;;;5031141;28;20033;-66
2023/12/22 03:23:58;;;;;;;7.87;1.93;;;6.10;99.90;;;;;;5034575;28;20477;-66
2023/12/22 03:26:26;;;;;;;14.97;2.10;;;6.10;99.90;;;;;;5031975;28;20045;-66
2023/12/22 03:28:51;;;;;;;18.45;2.58;;;6.10;99.90;;;;;;5032901;28;20068;-66
2023/12/22 03:31:17;;;;;;;14.63;1.63;;;6.10;99.90;;;;;;5034151;28;20060;-66
2023/12/22 03:33:42;;;;;;;12.40;2.07;;;6.00;99.90;;;;;;5031263;28;20037;-66
2023/12/22 03:36:08;;;;;;;12.87;1.77;;;6.00;99.90;;;;;;5031611;28;20040;-66
2023/12/22 03:38:33;;;;;;;14.27;1.93;;;6.00;99.90;;;;;;5031974;28;20037;-66
2023/12/22 03:40:59;;;;;;;12.53;1.20;;;5.90;99.90;;;;;;5031318;28;20037;-66
2023/12/22 03:43:25;;;;;;;12.40;1.80;;;5.90;99.90;;;;;;5030771;28;20088;-66
2023/12/22 03:45:50;;;;;;;7.37;0.90;;;5.80;99.90;;;;;;5032740;28;20138;-66
2023/12/22 03:48:16;;;;;;;10.87;0.83;;;5.80;99.90;;;;;;5031482;28;20037;-66
2023/12/22 03:50:42;;;;;;;5.37;0.57;;;5.70;99.90;;;;;;5033016;28;20077;-66
2023/12/22 03:53:07;;;;;;;6.78;1.25;;;5.70;99.90;;;;;;5030216;28;20040;-66
2023/12/22 03:55:33;;;;;;;7.00;0.70;;;5.60;99.90;;;;;;5031356;28;20076;-66
2023/12/22 03:57:58;;;;;;;7.63;1.27;;;5.60;99.90;;;;;;5031449;28;20037;-66
2023/12/22 04:00:24;;;;;;;6.70;1.23;;;5.50;99.90;;;;;;5031115;28;20045;-66
2023/12/22 04:02:49;;;;;;;15.13;1.13;;;5.50;99.90;;;;;;5030221;28;20037;-66
2023/12/22 04:05:15;;;;;;;11.27;0.77;;;5.50;99.90;;;;;;5030377;28;20097;-66
2023/12/22 04:07:41;;;;;;;7.80;0.70;;;5.50;99.90;;;;;;5033936;28;20112;-66
2023/12/22 04:10:07;;;;;;;13.77;1.20;;;5.40;99.90;;;;;;5032559;28;20025;-66
2023/12/22 04:12:32;;;;;;;10.27;1.23;;;5.40;99.90;;;;;;5031747;28;20358;-66
2023/12/22 04:14:58;;;;;;;11.77;0.93;;;5.40;99.90;;;;;;5031299;28;20036;-66
2023/12/22 04:17:23;;;;;;;15.67;1.30;;;5.30;99.90;;;;;;5031401;28;20037;-65
2023/12/22 04:19:49;;;;;;;5.20;0.93;;;5.30;99.90;;;;;;5031789;28;20392;-66
2023/12/22 04:22:14;;;;;;;7.33;1.03;;;5.30;99.90;;;;;;5031833;28;20041;-66
2023/12/22 04:24:40;;;;;;;9.97;1.60;;;5.30;99.90;;;;;;5029278;28;20080;-66
2023/12/22 04:27:06;;;;;;;18.47;2.10;;;5.30;99.90;;;;;;5031040;28;20025;-66
2023/12/22 04:29:32;;;;;;;7.67;1.07;;;5.30;99.90;;;;;;5031149;28;20288;-66
2023/12/22 04:31:57;;;;;;;14.07;1.70;;;5.30;99.90;;;;;;5030617;28;20562;-66
2023/12/22 04:34:23;;;;;;;18.23;1.33;;;5.30;99.90;;;;;;5030736;28;20033;-66
2023/12/22 04:36:48;;;;;;;13.20;1.67;;;5.30;99.90;;;;;;5030856;28;20041;-66
2023/12/22 04:39:14;;;;;;;19.03;2.53;;;5.30;99.90;;;;;;5029452;28;20120;-65
2023/12/22 04:41:39;;;;;;;15.57;2.87;;;5.30;99.90;;;;;;5030136;28;20484;-65
2023/12/22 04:44:05;;;;;;;18.67;2.60;;;5.30;99.90;;;;;;5028776;28;20103;-66
2023/12/22 04:46:31;;;;;;;24.07;2.03;;;5.30;99.90;;;;;;5030702;28;20041;-66
2023/12/22 04:48:56;;;;;;;15.70;2.53;;;5.30;99.90;;;;;;5029410;28;20083;-65
2023/12/22 04:51:22;;;;;;;20.27;2.70;;;5.40;99.90;;;;;;5032718;28;20077;-66
2023/12/22 04:53:47;;;;;;;26.60;2.60;;;5.40;99.90;;;;;;5027195;28;20330;-66
2023/12/22 04:56:13;;;;;;;19.93;2.20;;;5.50;99.90;;;;;;5028905;28;20510;-66
2023/12/22 04:58:39;;;;;;;16.70;4.00;;;5.50;99.90;;;;;;5030747;28;20050;-66
2023/12/22 05:01:04;;;;;;;18.23;3.13;;;5.60;99.90;;;;;;5032397;28;20034;-66
2023/12/22 05:03:30;;;;;;;20.33;2.27;;;5.60;99.90;;;;;;5030079;28;20521;-66
2023/12/22 05:05:55;;;;;;;25.90;3.60;;;5.70;99.90;;;;;;5029321;28;20046;-66
2023/12/22 05:08:21;;;;;;;25.33;4.97;;;5.70;99.90;;;;;;5030053;28;20053;-66
2023/12/22 05:10:47;;;;;;;17.97;3.30;;;5.80;99.90;;;;;;5029476;28;20045;-66
2023/12/22 05:13:12;;;;;;;12.73;2.60;;;5.90;99.90;;;;;;5030015;28;20295;-66
2023/12/22 05:15:38;;;;;;;19.33;3.73;;;5.90;99.90;;;;;;5029481;28;20511;-66
2023/12/22 05:18:04;;;;;;;12.37;2.43;;;5.90;99.90;;;;;;5030949;28;20049;-66
2023/12/22 05:20:29;;;;;;;26.23;2.83;;;5.90;99.90;;;;;;5030460;28;20128;-66
2023/12/22 05:22:56;;;;;;;16.50;2.27;;;5.90;99.90;;;;;;5029951;28;20049;-66
2023/12/22 05:25:22;;;;;;;16.48;3.08;;;6.00;99.90;;;;;;5029237;28;20124;-66
2023/12/22 05:27:47;;;;;;;22.17;3.00;;;6.00;99.90;;;;;;5030072;28;20133;-66
2023/12/22 05:30:13;;;;;;;14.67;3.77;;;6.00;99.90;;;;;;5028394;28;20705;-66
2023/12/22 05:32:39;;;;;;;19.30;3.38;;;6.10;99.90;;;;;;5030096;28;20038;-66
2023/12/22 05:35:05;;;;;;;18.20;2.50;;;6.10;99.90;;;;;;5029649;28;20043;-66
2023/12/22 05:37:30;;;;;;;22.40;2.53;;;6.10;99.90;;;;;;5032749;28;20036;-66
2023/12/22 05:39:56;;;;;;;18.30;3.13;;;6.10;99.90;;;;;;5030637;28;20041;-66
2023/12/22 05:42:22;;;;;;;25.47;3.80;;;6.10;99.90;;;;;;5029681;28;20076;-66
2023/12/22 05:44:49;;;;;;;16.80;2.33;;;6.10;99.90;;;;;;5030508;28;20334;-66
2023/12/22 05:47:18;;;;;;;16.80;2.33;;;6.10;99.90;;;;;;5024925;28;20065;-66
2023/12/22 05:49:44;;;;;;;23.83;3.20;;;6.20;99.90;;;;;;5029890;28;20033;-66
2023/12/22 05:52:11;;;;;;;21.47;3.03;;;6.20;99.90;;;;;;5027726;28;20048;-66
2023/12/22 05:54:38;;;;;;;18.48;2.88;;;6.20;99.90;;;;;;5028316;28;20280;-66
2023/12/22 05:57:05;;;;;;;;;;;6.20;99.90;;;;;;5028598;28;20041;-66
2023/12/22 05:59:32;;;;;;;19.98;2.35;;;6.20;99.90;;;;;;5029614;28;20003;-66
2023/12/22 06:01:58;;;;;;;15.32;2.88;;;6.20;99.90;;;;;;5029066;28;20087;-66
2023/12/22 06:04:24;;;;;;;;;;;6.30;99.90;;;;;;5029511;28;20420;-66
2023/12/22 06:06:50;;;;;;;16.10;2.80;;;6.30;99.90;;;;;;5029028;28;19924;-66
2023/12/22 06:09:17;;;;;;;18.80;3.00;;;6.20;99.90;;;;;;5029116;28;20041;-66
2023/12/22 06:11:42;;;;;;;24.30;2.97;;;6.30;99.90;;;;;;5028493;28;20404;-66
2023/12/22 06:14:08;;;;;;;17.57;2.73;;;6.30;99.90;;;;;;5030244;28;20037;-66
2023/12/22 06:16:34;;;;;;;20.77;3.60;;;6.30;99.90;;;;;;5029531;28;20049;-66
2023/12/22 06:18:59;;;;;;;34.00;5.57;;;6.30;99.90;;;;;;5027691;28;20220;-66
2023/12/22 06:21:25;;;;;;;24.53;2.87;;;6.30;99.90;;;;;;5029047;28;20358;-66
2023/12/22 06:23:50;;;;;;;25.63;3.87;;;6.40;99.90;;;;;;5029340;28;20045;-66
2023/12/22 06:26:16;;;;;;;21.33;3.00;;;6.40;99.90;;;;;;5033006;28;20045;-66
2023/12/22 06:28:41;;;;;;;29.77;4.67;;;6.40;99.90;;;;;;5035714;28;20053;-66
2023/12/22 06:31:08;;;;;;;19.70;3.00;;;6.40;99.90;;;;;;5028612;28;20480;-66
2023/12/22 06:33:34;;;;;;;12.27;2.30;;;6.50;99.90;;;;;;5028530;28;20057;-66
2023/12/22 06:36:00;;;;;;;19.10;3.30;;;6.40;99.90;;;;;;5028884;28;20488;-66
2023/12/22 06:38:25;;;;;;;20.23;3.67;;;6.40;99.90;;;;;;5028311;28;20157;-66
2023/12/22 06:40:51;;;;;;;21.07;3.17;;;6.40;99.90;;;;;;5028972;28;20504;-66
2023/12/22 06:43:16;;;;;;;23.50;3.27;;;6.50;99.90;;;;;;5029112;28;20127;-67
2023/12/22 06:45:42;;;;;;;23.93;3.47;;;6.40;99.90;;;;;;5028259;28;20055;-67
2023/12/22 06:48:09;;;;;;;20.30;4.43;;;6.50;99.90;;;;;;5028346;28;20033;-66
2023/12/22 06:50:36;;;;;;;15.07;2.63;;;6.50;99.90;;;;;;5028583;28;20046;-65
2023/12/22 06:53:02;;;;;;;21.33;3.35;;;6.50;99.90;;;;;;5028623;28;20038;-65
2023/12/22 06:55:28;;;;;;;15.23;2.15;;;6.50;99.90;;;;;;5028293;28;20033;-65
2023/12/22 06:57:55;;;;;;;22.40;2.67;;;6.50;99.90;;;;;;5010037;28;20038;-65
2023/12/22 07:00:21;;;;;;;17.02;2.30;;;6.50;99.90;;;;;;5028390;28;20041;-65
2023/12/22 07:02:46;;;;;;;15.87;3.33;;;6.50;99.90;;;;;;5031645;28;20034;-65
2023/12/22 07:05:33;;;;;;;13.73;1.70;;;6.50;99.90;;;;;;5028191;28;20531;-65
2023/12/22 07:07:59;;;;;;;18.73;2.92;;;6.60;99.90;;;;;;5028077;28;20436;-65
2023/12/22 07:10:24;;;;;;;12.37;1.90;;;6.60;99.90;;;;;;5030513;28;20042;-68
2023/12/22 07:12:50;;;;;;;13.10;2.97;;;6.60;99.90;;;;;;5027534;28;20041;-65
2023/12/22 07:15:15;;;;;;;17.23;2.37;;;6.60;99.90;;;;;;5023990;28;20033;-65
2023/12/22 07:17:42;;;;;;;18.33;2.87;;;6.60;99.90;;;;;;5025932;28;20037;-65
2023/12/22 07:20:09;;;;;;;;;;;6.70;99.90;;;;;;5011484;28;20579;-65
2023/12/22 07:22:34;;;;;;;19.50;3.43;;;6.70;99.90;;;;;;5029131;28;19932;-65
2023/12/22 07:25:00;;;;;;;16.13;2.47;;;6.70;99.90;;;;;;5026704;28;20041;-65
2023/12/22 07:27:25;;;;;;;16.77;3.33;;;6.70;99.90;;;;;;5024925;28;20041;-65
2023/12/22 07:29:51;;;;;;;18.70;2.50;;;6.70;99.90;;;;;;5024617;28;20120;-65
2023/12/22 07:32:16;;;;;;;23.03;4.50;;;6.70;99.90;;;;;;5027623;28;20041;-65
2023/12/22 07:34:42;;;;;;;22.03;3.33;;;6.70;99.90;;;;;;5025717;28;20540;-65
2023/12/22 07:37:08;;;;;;;23.90;3.17;;;6.70;99.90;;;;;;5025547;28;20061;-65
2023/12/22 07:39:34;;;;;;;20.20;3.03;;;6.70;99.90;;;;;;5025947;28;20037;-65
2023/12/22 07:41:59;;;;;;;29.92;4.63;;;6.70;99.90;;;;;;5030366;28;20381;-65
2023/12/22 07:44:25;;;;;;;24.67;2.63;;;6.70;99.90;;;;;;5026095;28;20048;-65
2023/12/22 07:46:58;;;;;;;28.07;4.07;;;6.70;99.90;;;;;;5023930;28;20276;-66
2023/12/22 07:49:24;;;;;;;21.60;3.25;;;6.70;99.90;;;;;;5029301;28;20061;-65
2023/12/22 07:51:51;;;;;;;33.77;5.43;;;6.70;99.90;;;;;;5031593;28;20546;-65
2023/12/22 07:54:17;;;;;;;21.83;3.97;;;6.70;99.90;;;;;;5029145;28;20099;-65
2023/12/22 07:56:43;;;;;;;20.20;3.72;;;6.70;99.90;;;;;;5026732;28;20038;-65
2023/12/22 07:59:08;;;;;;;18.43;3.03;;;6.70;99.90;;;;;;5026236;28;20043;-65
2023/12/22 08:01:34;;;;;;;18.80;2.77;;;6.70;99.90;;;;;;5028950;28;20033;-67
2023/12/22 08:03:59;;;;;;;23.33;3.23;;;6.60;99.90;;;;;;5028650;28;20396;-67
2023/12/22 08:06:25;;;;;;;20.83;3.80;;;6.60;99.90;;;;;;5026674;28;20045;-67
2023/12/22 08:08:50;;;;;;;20.43;2.80;;;6.60;99.90;;;;;;5024223;28;20327;-67
2023/12/22 08:11:16;;;;;;;21.07;2.50;;;6.60;99.90;;;;;;5029436;28;20038;-67
2023/12/22 08:13:42;;;;;;;18.17;3.07;;;6.60;99.90;;;;;;5026732;28;20091;-68
2023/12/22 08:16:07;;;;;;;11.40;2.70;;;6.60;99.90;;;;;;5021853;28;20044;-67
2023/12/22 08:18:33;;;;;;;24.63;3.13;;;6.60;99.90;;;;;;5022791;28;20065;-67
2023/12/22 08:20:58;;;;;;;21.60;3.03;;;6.60;99.90;;;;;;5030393;28;20064;-67
2023/12/22 08:23:24;;;;;;;26.60;3.07;;;6.60;99.90;;;;;;5026649;28;20045;-67
2023/12/22 08:25:50;;;;;;;19.57;3.40;;;6.60;99.90;;;;;;5019955;28;20063;-68
2023/12/22 08:28:15;;;;;;;28.60;3.00;;;6.60;99.90;;;;;;5020822;28;20079;-67
2023/12/22 08:30:41;;;;;;;14.43;2.60;;;6.60;99.90;;;;;;5029955;28;20037;-67
2023/12/22 08:33:06;;;;;;;13.53;2.97;;;6.60;99.90;;;;;;5028987;28;20037;-67
2023/12/22 08:35:32;;;;;;;17.40;3.37;;;6.70;99.90;;;;;;5027181;28;20515;-67
2023/12/22 08:37:58;;;;;;;19.47;3.10;;;6.60;99.90;;;;;;5028702;28;20352;-67
2023/12/22 08:40:25;;;;;;;18.70;3.10;;;6.70;99.90;;;;;;5026850;28;20045;-67
2023/12/22 08:42:54;;;;;;;15.35;3.15;;;6.70;99.90;;;;;;5027861;28;20424;-67
2023/12/22 08:45:21;;;;;;;19.73;2.47;;;6.70;99.90;;;;;;5018664;28;20042;-68
2023/12/22 08:47:46;;;;;;;20.08;2.70;;;6.70;99.90;;;;;;5015524;28;20641;-67
2023/12/22 08:50:12;;;;;;;16.97;2.60;;;6.70;99.90;;;;;;5019317;28;20124;-67
2023/12/22 08:52:38;;;;;;;17.15;2.72;;;6.70;99.90;;;;;;5023786;28;20655;-67
2023/12/22 08:55:05;;;;;;;12.93;2.00;;;6.80;99.90;;;;;;5019170;28;20120;-67
2023/12/22 08:57:31;;;;;;;;;;;6.80;99.90;;;;;;5025908;28;20412;-67
2023/12/22 08:59:57;;;;;;;16.73;2.42;;;6.80;99.90;;;;;;5027041;28;19925;-67
2023/12/22 09:02:23;;;;;;;10.88;1.83;;;6.80;99.90;;;;;;5029406;28;20049;-67
2023/12/22 09:04:48;;;;;;;9.73;1.55;;;6.80;99.90;;;;;;5029030;28;20045;-67
2023/12/22 09:07:14;;;;;;;11.60;1.50;;;6.90;99.90;;;;;;5030449;28;20049;-67
2023/12/22 09:09:40;;;;;;;15.57;1.73;;;6.90;99.90;;;;;;5023389;28;20041;-67
2023/12/22 09:12:05;;;;;;;12.55;1.35;;;6.90;99.90;;;;;;5025006;28;20096;-67
2023/12/22 09:14:31;;;;;;;8.23;0.95;;;6.90;99.90;;;;;;5022592;28;20037;-67
2023/12/22 09:16:57;;;;;;;9.13;0.75;;;6.90;99.90;;;;;;5026190;28;20037;-66
2023/12/22 09:19:22;;;;;;;6.97;0.87;;;6.90;99.90;;;;;;5023488;28;20038;-68
2023/12/22 09:21:48;;;;;;;12.00;1.27;;;6.90;99.90;;;;;;5025924;28;20041;-68
2023/12/22 09:24:16;;;;;;;11.80;1.23;;;6.90;99.90;;;;;;5025925;28;20304;-68
2023/12/22 09:26:42;;;;;;;13.15;1.90;;;7.00;99.90;;;;;;5030973;28;20069;-66
2023/12/22 09:29:07;;;;;;;9.77;1.27;;;7.00;99.90;;;;;;5030413;28;20142;-69
2023/12/22 09:31:33;;;;;;;8.57;0.97;;;7.20;99.90;;;;;;5027390;28;20042;-66
2023/12/22 09:33:58;;;;;;;9.10;1.23;;;8.10;99.90;;;;;;5021943;28;20043;-68
2023/12/22 09:36:24;;;;;;;7.70;0.83;;;8.80;99.90;;;;;;5022599;28;20067;-68
2023/12/22 09:38:49;;;;;;;6.90;1.53;;;9.00;99.90;;;;;;5025464;28;20059;-67
2023/12/22 09:41:15;;;;;;;6.23;0.77;;;8.90;99.90;;;;;;5029184;28;20095;-68
2023/12/22 09:43:45;;;;;;;9.17;2.03;;;8.70;99.90;;;;;;5020063;28;20339;-67
2023/12/22 09:46:11;;;;;;;7.18;0.50;;;8.60;99.90;;;;;;5022409;28;20132;-69
2023/12/22 09:48:39;;;;;;;6.30;0.70;;;8.30;99.90;;;;;;5023321;28;20034;-68
2023/12/22 09:51:06;;;;;;;5.40;0.95;;;8.10;99.90;;;;;;5024821;28;20358;-66
2023/12/22 09:53:33;;;;;;;13.68;1.15;;;7.90;99.90;;;;;;5022887;28;20073;-69
2023/12/22 09:56:00;;;;;;;16.95;1.20;;;7.70;99.90;;;;;;5024571;28;20041;-69
2023/12/22 09:58:25;;;;;;;7.18;0.93;;;7.60;99.90;;;;;;5020662;28;20088;-69
2023/12/22 10:00:52;;;;;;;9.17;1.23;;;7.50;99.90;;;;;;5029230;28;20041;-69
2023/12/22 10:03:20;;;;;;;9.23;1.40;;;7.40;99.90;;;;;;5025787;28;20063;-69
2023/12/22 10:05:46;;;;;;;11.32;1.35;;;7.40;99.90;;;;;;5020994;28;20666;-69
2023/12/22 10:08:12;;;;;;;7.35;1.05;;;7.30;99.90;;;;;;5018940;28;20112;-69
2023/12/22 10:10:39;;;;;;;;;;;7.30;99.90;;;;;;5020027;28;20447;-68
2023/12/22 10:13:08;;;;;;;11.88;1.55;;;7.20;99.90;;;;;;5022437;28;19952;-68
2023/12/22 10:15:37;;;;;;;14.48;1.98;;;7.10;99.90;;;;;;5021433;28;20502;-68
2023/12/22 10:18:03;;;;;;;7.65;1.50;;;7.10;99.90;;;;;;5024646;28;20440;-68
2023/12/22 10:20:29;;;;;;;8.90;1.85;;;7.10;99.90;;;;;;5024575;28;20116;-68
2023/12/22 10:22:54;;;;;;;12.87;1.60;;;7.00;99.90;;;;;;5021936;28;20447;-68
2023/12/22 10:25:21;;;;;;;7.80;1.23;;;7.00;99.90;;;;;;5015992;28;20120;-68
2023/12/22 10:27:47;;;;;;;8.77;1.55;;;6.90;99.90;;;;;;5033039;28;20041;-69
2023/12/22 10:30:12;;;;;;;15.43;1.77;;;6.90;99.90;;;;;;5032414;28;20037;-68
2023/12/22 10:32:42;;;;;;;9.18;1.30;;;6.90;99.90;;;;;;5034442;28;20643;-68
2023/12/22 10:35:08;;;;;;;10.55;1.65;;;6.80;99.90;;;;;;5033148;28;20029;-68
2023/12/22 10:37:34;;;;;;;;;;;6.80;99.90;;;;;;5035690;28;20041;-68
2023/12/22 10:40:00;;;;;;;13.13;1.65;;;6.80;99.90;;;;;;5039285;28;19962;-69
2023/12/22 10:42:26;;;;;;;10.23;1.50;;;6.70;99.90;;;;;;5037088;28;20060;-68
2023/12/22 10:44:53;;;;;;;6.07;1.50;;;6.80;99.90;;;;;;5034708;28;20718;-68
2023/12/22 10:47:21;;;;;;;9.13;1.27;;;6.70;99.90;;;;;;5040562;28;20041;-68
2023/12/22 10:49:46;;;;;;;10.48;2.20;;;6.80;99.90;;;;;;5039586;28;20041;-68
2023/12/22 10:52:20;;;;;;;11.00;1.58;;;6.70;99.90;;;;;;5039554;28;20518;-68
2023/12/22 10:54:46;;;;;;;12.93;1.63;;;6.70;99.90;;;;;;5036017;28;20088;-69
2023/12/22 10:57:12;;;;;;;7.55;1.17;;;6.70;99.90;;;;;;5039480;28;20102;-69
2023/12/22 10:59:45;;;;;;;9.13;1.35;;;6.70;99.90;;;;;;5038529;28;20132;-68
2023/12/22 11:02:16;;;;;;;14.55;1.25;;;6.70;99.90;;;;;;5040580;28;20041;-68
2023/12/22 11:04:51;;;;;;;10.98;1.80;;;6.70;99.90;;;;;;5035155;28;20107;-68
2023/12/22 11:07:18;;;;;;;6.63;0.95;;;6.70;99.90;;;;;;5037197;28;20046;-68
2023/12/22 11:09:46;;;;;;;5.88;0.80;;;6.70;99.90;;;;;;5036231;28;20485;-68
2023/12/22 11:12:13;;;;;;;5.18;0.63;;;6.80;99.90;;;;;;5022858;28;20423;-69
2023/12/22 11:14:39;;;;;;;6.88;0.68;;;6.80;99.90;;;;;;5041487;28;20411;-69
2023/12/22 11:17:06;;;;;;;;;;;6.80;99.90;;;;;;5040625;28;20488;-69
2023/12/22 11:19:35;;;;;;;5.18;0.95;;;6.80;99.90;;;;;;5041292;28;20387;-69
2023/12/22 11:22:03;;;;;;;3.00;0.32;;;6.80;99.90;;;;;;5040728;28;20032;-69
2023/12/22 11:24:30;;;;;;;4.05;0.30;;;6.90;99.90;;;;;;5036734;28;20088;-69
2023/12/22 11:26:58;;;;;;;4.70;0.47;;;6.90;99.90;;;;;;5036238;28;20526;-69
2023/12/22 11:29:26;;;;;;;1.88;0.50;;;6.90;99.90;;;;;;5027118;28;20096;-69
2023/12/22 11:31:55;;;;;;;5.40;0.30;;;6.90;99.90;;;;;;5027356;28;20041;-69
2023/12/22 11:34:23;;;;;;;4.32;0.77;;;6.90;99.90;;;;;;5032760;28;20045;-69
2023/12/22 11:36:50;;;;;;;2.63;0.47;;;6.90;99.90;;;;;;5027721;28;20480;-69
2023/12/22 11:39:15;;;;;;;7.95;0.45;;;6.90;99.90;;;;;;5031717;28;20516;-69
2023/12/22 11:41:43;;;;;;;4.45;0.30;;;6.90;99.90;;;;;;5027168;28;20120;-69
2023/12/22 11:44:09;;;;;;;2.20;0.25;;;7.00;99.90;;;;;;5028378;28;20076;-69
2023/12/22 11:46:34;;;;;;;0.40;0.20;;;7.00;99.90;;;;;;5027391;28;20126;-69
2023/12/22 11:49:00;;;;;;;2.80;0.40;;;7.00;99.90;;;;;;5025446;28;20026;-69
2023/12/22 11:51:34;;;;;;;3.97;0.68;;;7.00;99.90;;;;;;5028682;28;20363;-68
2023/12/22 11:54:00;;;;;;;7.07;0.50;;;7.00;99.90;;;;;;5028417;28;20037;-69
2023/12/22 11:56:25;;;;;;;4.80;0.60;;;7.00;99.90;;;;;;5035307;28;20076;-69
2023/12/22 11:58:54;;;;;;;2.97;0.40;;;7.00;99.90;;;;;;5035206;28;20400;-69
2023/12/22 12:01:22;;;;;;;2.20;0.75;;;7.00;99.90;;;;;;5028237;28;20116;-69
2023/12/22 12:03:48;;;;;;;5.80;1.02;;;7.10;99.90;;;;;;5032983;28;20057;-69
2023/12/22 12:06:16;;;;;;;4.97;0.57;;;7.10;99.90;;;;;;5031494;28;20244;-69
2023/12/22 12:08:42;;;;;;;3.25;0.43;;;7.10;99.90;;;;;;5029130;28;20069;-69
2023/12/22 12:11:08;;;;;;;4.43;0.63;;;7.10;99.90;;;;;;5031220;28;20085;-69
2023/12/22 12:13:34;;;;;;;2.10;0.60;;;7.10;99.90;;;;;;5026014;28;20038;-69
2023/12/22 12:16:01;;;;;;;3.00;0.20;;;7.10;99.90;;;;;;5028846;28;20351;-69
2023/12/22 12:18:31;;;;;;;4.60;1.00;;;7.10;99.90;;;;;;5030871;28;20049;-69
2023/12/22 12:20:57;;;;;;;3.13;0.77;;;7.10;99.90;;;;;;5034149;28;20328;-69
2023/12/22 12:23:27;;;;;;;3.55;0.20;;;7.10;99.90;;;;;;5032619;28;20107;-69
2023/12/22 12:25:54;;;;;;;4.07;0.65;;;7.10;99.90;;;;;;5024734;28;20106;-69
2023/12/22 12:28:32;;;;;;;4.07;0.20;;;7.10;99.90;;;;;;5025060;28;20404;-69
2023/12/22 12:31:00;;;;;;;2.95;0.40;;;7.20;99.90;;;;;;5028048;28;20033;-69
2023/12/22 12:33:27;;;;;;;4.22;0.47;;;7.20;99.90;;;;;;5040800;28;20399;-69
2023/12/22 12:35:55;;;;;;;6.82;0.40;;;7.20;99.90;;;;;;5026888;28;20033;-69
2023/12/22 12:38:24;;;;;;;6.45;0.52;;;7.20;99.90;;;;;;5030640;28;20100;-69
2023/12/22 12:40:51;;;;;;;4.13;0.38;;;7.20;99.90;;;;;;5029160;28;20084;-67
2023/12/22 12:43:17;;;;;;;;;;;7.20;99.90;;;;;;5030602;28;20107;-68
2023/12/22 12:45:42;;;;;;;5.63;0.30;;;7.20;99.90;;;;;;5028225;28;19928;-67
2023/12/22 12:48:08;;;;;;;3.90;0.30;;;7.20;99.90;;;;;;5028015;28;20583;-67